Rostrevor, United Kingdom
Current Conditions -  °F | °C
As of 11:20 PM on Sunday 21 Dec 2014 (Local Time) from EGAC Reporting Station
Light Rain Light Rain  
Wind Chill: 54°   Ceiling: 2300
Heat Index: 54°   Visibility: 6mi
Dew Point: 50°   Wind: 21mph
Humidity: 88%   Direction: 230°SW
Pressure: 29.74"   Gusts: 32mph
Location:  54.1°N, 6.2°W
Report Text: EGAC 212320Z 23018G28KT 9999 7000W -RA FEW008 SCT015 BKN023 12/10 Q1007
Loading
Personal Weather Stations






























Interactive Weather Map New forecast layout! Learn more

10-Day Weather Forecast

Advertisements
Track Severe Weather on mobile